createdAt,value
2023-05-14T00:01:36.163Z,29.30
2023-05-14T00:04:03.969Z,28.63
2023-05-14T00:06:31.908Z,29.60
2023-05-14T00:08:58.757Z,28.80
2023-05-14T00:11:26.604Z,29.40
2023-05-14T00:13:53.478Z,29.83
2023-05-14T00:16:20.457Z,32.03
2023-05-14T00:18:47.392Z,33.27
2023-05-14T00:21:14.308Z,32.33
2023-05-14T00:23:41.198Z,30.63
2023-05-14T00:26:08.196Z,29.70
2023-05-14T00:28:35.178Z,30.87
2023-05-14T00:31:02.072Z,32.00
2023-05-14T00:33:29.069Z,31.23
2023-05-14T00:35:55.922Z,33.17
2023-05-14T00:38:24.396Z,32.70
2023-05-14T00:40:52.043Z,31.43
2023-05-14T00:43:22.559Z,32.50
2023-05-14T00:45:53.080Z,33.47
2023-05-14T00:48:25.304Z,32.93
2023-05-14T00:50:52.214Z,32.80
2023-05-14T00:53:22.074Z,32.70
2023-05-14T00:55:49.434Z,33.53
2023-05-14T00:58:17.280Z,31.50
2023-05-14T01:00:44.244Z,32.37
2023-05-14T01:03:11.217Z,31.00
2023-05-14T01:05:47.727Z,31.97
2023-05-14T01:08:36.306Z,29.03
2023-05-14T01:11:41.667Z,30.63
2023-05-14T01:14:21.965Z,31.60
2023-05-14T01:16:50.051Z,30.57
2023-05-14T01:19:40.673Z,30.23
2023-05-14T01:22:07.707Z,31.17
2023-05-14T01:24:34.650Z,31.03
2023-05-14T01:27:26.650Z,30.97
2023-05-14T01:30:18.957Z,28.27
2023-05-14T01:32:48.639Z,30.03
2023-05-14T01:35:15.492Z,31.90
2023-05-14T01:37:42.345Z,29.17
2023-05-14T01:40:09.831Z,27.57
2023-05-14T01:42:36.993Z,29.67
2023-05-14T01:45:04.248Z,29.43
2023-05-14T01:47:31.115Z,28.23
2023-05-14T01:49:58.007Z,28.07
2023-05-14T01:52:25.853Z,27.53
2023-05-14T01:54:52.860Z,28.37
2023-05-14T01:57:21.572Z,29.40
2023-05-14T01:59:48.433Z,29.80
2023-05-14T02:02:15.302Z,28.53
2023-05-14T02:04:42.194Z,29.27
2023-05-14T02:07:09.094Z,27.43
2023-05-14T02:09:36.216Z,29.13
2023-05-14T02:12:03.114Z,28.53
2023-05-14T02:14:29.996Z,29.27
2023-05-14T02:16:56.976Z,28.40
2023-05-14T02:19:24.412Z,29.47
2023-05-14T02:21:52.279Z,28.33
2023-05-14T02:24:19.119Z,27.80
2023-05-14T02:26:46.206Z,27.33
2023-05-14T02:29:13.105Z,28.47
2023-05-14T02:31:40.997Z,29.80
2023-05-14T02:34:07.873Z,28.70
2023-05-14T02:36:34.699Z,28.53
2023-05-14T02:39:01.722Z,29.23
2023-05-14T02:41:28.583Z,29.73
2023-05-14T02:43:55.538Z,28.00
2023-05-14T02:46:28.235Z,30.40
2023-05-14T02:48:55.074Z,29.57
2023-05-14T02:51:23.029Z,29.53
2023-05-14T02:53:49.992Z,28.20
2023-05-14T02:56:16.843Z,30.13
2023-05-14T02:58:43.727Z,27.53
2023-05-14T03:01:12.656Z,29.63
2023-05-14T03:03:40.170Z,27.90
2023-05-14T03:06:07.628Z,27.20
2023-05-14T03:08:34.470Z,28.47
2023-05-14T03:11:02.725Z,27.43
2023-05-14T03:13:30.624Z,30.37
2023-05-14T03:15:58.463Z,31.00
2023-05-14T03:18:25.502Z,28.97
2023-05-14T03:20:52.492Z,28.40
2023-05-14T03:23:19.590Z,29.33
2023-05-14T03:25:46.523Z,28.73
2023-05-14T03:28:13.396Z,29.17
2023-05-14T03:30:40.336Z,28.53
2023-05-14T03:33:07.283Z,28.70
2023-05-14T03:35:34.240Z,28.20
2023-05-14T03:38:01.175Z,27.90
2023-05-14T03:40:29.059Z,29.50
2023-05-14T03:42:56.195Z,30.30
2023-05-14T03:45:23.077Z,30.07
2023-05-14T03:47:51.094Z,26.23
2023-05-14T03:50:23.801Z,27.60
2023-05-14T03:52:52.447Z,26.63
2023-05-14T03:55:22.337Z,25.93
2023-05-14T03:57:49.276Z,27.70
2023-05-14T04:00:17.338Z,28.17
2023-05-14T04:02:44.403Z,27.43
2023-05-14T04:05:11.456Z,27.33
2023-05-14T04:07:38.413Z,26.67
2023-05-14T04:10:05.799Z,27.50
2023-05-14T04:12:32.712Z,26.60
2023-05-14T04:14:59.625Z,28.90
2023-05-14T04:17:26.545Z,25.23
2023-05-14T04:19:53.466Z,27.00
2023-05-14T04:22:20.450Z,26.83
2023-05-14T04:24:47.405Z,26.67
2023-05-14T04:27:21.006Z,27.00
2023-05-14T04:29:48.768Z,26.53
2023-05-14T04:32:15.781Z,27.70
2023-05-14T04:34:42.628Z,26.70
2023-05-14T04:37:10.174Z,27.57
2023-05-14T04:39:37.029Z,26.20
2023-05-14T04:42:05.154Z,26.20
2023-05-14T04:44:32.098Z,26.30
2023-05-14T04:46:59.078Z,27.20
2023-05-14T04:49:25.926Z,28.23
2023-05-14T04:51:52.802Z,28.13
2023-05-14T04:54:19.939Z,27.67
2023-05-14T04:56:47.778Z,26.30
2023-05-14T04:59:14.699Z,28.17
2023-05-14T05:01:43.645Z,28.10
2023-05-14T05:04:10.710Z,26.83
2023-05-14T05:06:37.746Z,27.93
2023-05-14T05:09:05.587Z,26.03
2023-05-14T05:11:32.481Z,26.47
2023-05-14T05:13:59.885Z,26.07
2023-05-14T05:16:26.945Z,28.73
2023-05-14T05:18:53.949Z,27.47
2023-05-14T05:21:20.809Z,26.10
2023-05-14T05:23:53.610Z,26.43
2023-05-14T05:26:22.158Z,28.10
2023-05-14T05:28:49.018Z,28.17
2023-05-14T05:31:18.314Z,26.30
2023-05-14T05:33:46.763Z,26.63
2023-05-14T05:36:13.612Z,26.67
2023-05-14T05:38:40.543Z,28.03
2023-05-14T05:41:07.604Z,27.17
2023-05-14T05:43:34.615Z,30.53
2023-05-14T05:46:01.777Z,28.17
2023-05-14T05:48:28.685Z,27.03
2023-05-14T05:50:56.591Z,26.83
2023-05-14T05:53:23.522Z,27.50
2023-05-14T05:55:56.265Z,27.50
2023-05-14T05:58:24.194Z,26.77
2023-05-14T06:00:51.532Z,26.80
2023-05-14T06:03:18.500Z,26.80
2023-05-14T06:05:46.810Z,26.07
2023-05-14T06:08:13.843Z,25.17
2023-05-14T06:10:41.765Z,25.07
2023-05-14T06:13:09.715Z,22.20
2023-05-14T06:15:36.556Z,21.63
2023-05-14T06:18:03.512Z,23.43
2023-05-14T06:20:30.439Z,21.83
2023-05-14T06:22:58.054Z,20.33
2023-05-14T06:25:24.934Z,20.73
2023-05-14T06:27:51.837Z,20.83
2023-05-14T06:30:18.826Z,21.70
2023-05-14T06:32:46.534Z,23.23
2023-05-14T06:35:13.454Z,21.37
2023-05-14T06:37:40.320Z,22.60
2023-05-14T06:40:12.807Z,20.77
2023-05-14T06:42:39.708Z,22.20
2023-05-14T06:45:07.270Z,20.70
2023-05-14T06:47:34.258Z,20.77
2023-05-14T06:50:01.984Z,21.73
2023-05-14T06:52:29.054Z,23.00
2023-05-14T06:54:55.931Z,22.17
2023-05-14T06:57:25.012Z,22.17
2023-05-14T06:59:52.918Z,22.23
2023-05-14T07:02:19.808Z,23.07
2023-05-14T07:04:48.746Z,22.50
2023-05-14T07:07:18.354Z,22.67
2023-05-14T07:09:45.268Z,21.63
2023-05-14T07:12:12.157Z,20.87
2023-05-14T07:14:39.038Z,21.97
2023-05-14T07:17:05.965Z,20.87
2023-05-14T07:19:32.931Z,21.50
2023-05-14T07:22:01.277Z,21.13
2023-05-14T07:24:28.148Z,21.30
2023-05-14T07:26:57.225Z,18.37
2023-05-14T07:29:25.551Z,20.40
2023-05-14T07:31:52.509Z,19.73
2023-05-14T07:34:19.598Z,19.30
2023-05-14T07:36:46.876Z,19.33
2023-05-14T07:39:13.835Z,20.17
2023-05-14T07:41:40.941Z,20.80
2023-05-14T07:44:09.033Z,19.30
2023-05-14T07:46:36.889Z,18.87
2023-05-14T07:49:09.784Z,20.42
2023-05-14T07:51:42.668Z,19.70
2023-05-14T07:54:09.579Z,19.90
2023-05-14T07:56:36.414Z,21.38
2023-05-14T07:59:03.304Z,21.80
2023-05-14T08:01:31.322Z,19.60
2023-05-14T08:03:58.334Z,20.53
2023-05-14T08:06:27.593Z,19.30
2023-05-14T08:08:54.620Z,20.27
2023-05-14T08:11:22.411Z,20.63
2023-05-14T08:13:49.312Z,19.93
2023-05-14T08:16:16.269Z,21.97
2023-05-14T08:18:43.301Z,19.90
2023-05-14T08:21:10.184Z,18.70
2023-05-14T08:23:37.068Z,18.97
2023-05-14T08:26:03.975Z,18.52
2023-05-14T08:28:31.863Z,18.33
2023-05-14T08:30:59.778Z,18.17
2023-05-14T08:33:26.694Z,17.53
2023-05-14T08:35:53.953Z,16.90
2023-05-14T08:38:20.945Z,16.57
2023-05-14T08:40:49.660Z,17.70
2023-05-14T08:43:17.286Z,17.10
2023-05-14T08:45:44.242Z,17.27
2023-05-14T08:48:11.430Z,18.13
2023-05-14T08:50:39.319Z,18.63
2023-05-14T08:53:06.243Z,18.37
2023-05-14T08:55:34.173Z,17.17
2023-05-14T08:58:03.161Z,16.23
2023-05-14T09:00:30.036Z,16.90
2023-05-14T09:02:56.944Z,16.38
2023-05-14T09:05:23.978Z,15.85
2023-05-14T09:07:50.815Z,16.45
2023-05-14T09:10:17.812Z,16.92
2023-05-14T09:12:44.777Z,17.42
2023-05-14T09:15:11.614Z,14.95
2023-05-14T09:17:38.469Z,15.63
2023-05-14T09:20:06.282Z,15.82
2023-05-14T09:22:33.193Z,15.77
2023-05-14T09:25:09.287Z,15.83
2023-05-14T09:27:36.651Z,16.70
2023-05-14T09:30:13.489Z,15.55
2023-05-14T09:32:47.330Z,16.10
2023-05-14T09:35:24.614Z,16.63
2023-05-14T09:37:55.557Z,16.75
2023-05-14T09:40:24.181Z,15.35
2023-05-14T09:42:51.612Z,16.88
2023-05-14T09:45:18.594Z,14.35
2023-05-14T09:47:45.768Z,14.23
2023-05-14T09:50:12.916Z,15.95
2023-05-14T09:52:40.098Z,15.70
2023-05-14T09:55:08.007Z,15.03
2023-05-14T09:57:35.460Z,14.70
2023-05-14T10:00:02.405Z,15.57
2023-05-14T10:02:38.921Z,14.52
2023-05-14T10:05:06.526Z,13.50
2023-05-14T10:07:44.809Z,12.35
2023-05-14T10:10:15.677Z,12.70
2023-05-14T10:12:42.661Z,12.32
2023-05-14T10:15:49.975Z,13.07
2023-05-14T10:18:18.259Z,11.52
2023-05-14T10:20:46.714Z,12.60
2023-05-14T10:23:13.608Z,12.90
2023-05-14T10:25:40.804Z,12.43
2023-05-14T10:28:07.693Z,13.52
2023-05-14T10:30:34.589Z,11.45
2023-05-14T10:33:11.630Z,13.20
2023-05-14T10:35:52.496Z,13.13
2023-05-14T10:38:23.277Z,12.95
2023-05-14T10:40:54.106Z,13.65
2023-05-14T10:43:21.150Z,13.57
2023-05-14T10:45:48.025Z,14.02
2023-05-14T10:48:14.928Z,14.77
2023-05-14T10:50:43.062Z,15.57
2023-05-14T10:53:13.104Z,15.52
2023-05-14T10:55:40.151Z,14.23
2023-05-14T10:58:07.745Z,14.25
2023-05-14T11:00:34.823Z,13.48
2023-05-14T11:03:04.256Z,14.50
2023-05-14T11:05:31.416Z,14.13
2023-05-14T11:07:58.537Z,14.32
2023-05-14T11:10:31.533Z,14.43
2023-05-14T11:12:59.181Z,13.18
2023-05-14T11:15:26.506Z,12.13
2023-05-14T11:17:53.772Z,14.48
2023-05-14T11:20:20.829Z,12.98
2023-05-14T11:22:49.036Z,13.93
2023-05-14T11:25:15.979Z,12.75
2023-05-14T11:27:48.088Z,14.65
2023-05-14T11:30:19.204Z,15.45
2023-05-14T11:32:46.869Z,13.57
2023-05-14T11:35:15.338Z,13.07
2023-05-14T11:37:42.667Z,13.57
2023-05-14T11:40:14.401Z,13.35
2023-05-14T11:42:42.336Z,13.00
2023-05-14T11:45:12.412Z,13.23
2023-05-14T11:47:39.450Z,14.43
2023-05-14T11:50:09.161Z,14.27
2023-05-14T11:52:42.384Z,13.63
2023-05-14T11:55:12.843Z,12.73
2023-05-14T11:57:40.929Z,13.60
2023-05-14T12:00:14.597Z,14.32
2023-05-14T12:02:41.539Z,14.20
2023-05-14T12:05:09.194Z,13.32
2023-05-14T12:07:36.071Z,12.90
2023-05-14T12:10:03.443Z,14.30
2023-05-14T12:12:35.038Z,15.90
2023-05-14T12:15:02.007Z,14.15
2023-05-14T12:17:28.931Z,13.10
2023-05-14T12:19:57.386Z,14.48
2023-05-14T12:22:24.246Z,13.95
2023-05-14T12:24:58.469Z,14.93
2023-05-14T12:27:26.465Z,14.02
2023-05-14T12:33:40.939Z,14.88
2023-05-14T12:39:48.582Z,13.70
2023-05-14T12:46:03.158Z,13.52
2023-05-14T12:52:29.463Z,14.05
2023-05-14T12:58:46.699Z,14.83
2023-05-14T13:04:54.342Z,14.00
2023-05-14T13:11:02.421Z,13.93
2023-05-14T13:17:10.284Z,13.17
2023-05-14T13:23:17.857Z,13.35
2023-05-14T13:29:25.640Z,11.95
2023-05-14T13:35:34.702Z,13.65
2023-05-14T13:41:50.780Z,12.25
2023-05-14T13:51:46.069Z,12.95
2023-05-14T13:58:02.149Z,12.35
2023-05-14T14:04:10.474Z,13.80
2023-05-14T14:10:18.562Z,14.27
2023-05-14T14:16:26.190Z,16.23
2023-05-14T14:22:33.951Z,16.27
2023-05-14T14:28:41.783Z,16.35
2023-05-14T14:34:56.132Z,14.10
2023-05-14T14:41:04.072Z,14.15
2023-05-14T14:47:12.036Z,14.32
2023-05-14T14:53:26.196Z,12.60
2023-05-14T14:59:40.449Z,13.65
2023-05-14T15:05:48.456Z,12.60
2023-05-14T15:12:03.201Z,12.68
2023-05-14T15:22:06.230Z,12.80
2023-05-14T15:28:13.853Z,13.00
2023-05-14T15:34:21.794Z,12.65
2023-05-14T15:40:30.435Z,13.90
2023-05-14T15:42:57.396Z,12.77
2023-05-14T15:45:24.360Z,14.10
2023-05-14T15:47:51.294Z,14.02
2023-05-14T15:50:18.201Z,13.60
2023-05-14T15:52:46.147Z,12.13
2023-05-14T15:55:13.018Z,11.63
2023-05-14T15:57:40.887Z,13.32
2023-05-14T16:00:11.447Z,11.80
2023-05-14T16:02:39.823Z,11.93
2023-05-14T16:05:07.566Z,11.20
2023-05-14T16:07:34.604Z,12.40
2023-05-14T16:10:01.469Z,12.82
2023-05-14T16:12:28.440Z,12.77
2023-05-14T16:14:57.082Z,11.57
2023-05-14T16:17:24.137Z,11.55
2023-05-14T16:19:51.369Z,12.02
2023-05-14T16:22:19.250Z,12.82
2023-05-14T16:24:46.154Z,12.65
2023-05-14T16:27:13.108Z,11.02
2023-05-14T16:29:40.040Z,12.95
2023-05-14T16:32:07.259Z,10.82
2023-05-14T16:34:34.230Z,11.13
2023-05-14T16:37:01.173Z,11.18
2023-05-14T16:39:28.095Z,11.18
2023-05-14T16:41:54.937Z,11.30
2023-05-14T16:44:21.810Z,11.57
2023-05-14T16:46:48.661Z,12.40
2023-05-14T16:49:16.907Z,12.90
2023-05-14T16:51:44.121Z,9.70
2023-05-14T16:54:11.124Z,12.27
2023-05-14T16:56:38.014Z,12.70
2023-05-14T16:59:04.974Z,10.52
2023-05-14T17:01:32.372Z,12.57
2023-05-14T17:03:59.379Z,14.03
2023-05-14T17:06:26.298Z,12.47
2023-05-14T17:08:53.184Z,11.90
2023-05-14T17:11:21.118Z,12.73
2023-05-14T17:13:48.149Z,11.60
2023-05-14T17:16:16.458Z,10.68
2023-05-14T17:18:43.400Z,11.63
2023-05-14T17:21:10.439Z,10.57
2023-05-14T17:23:37.290Z,10.80
2023-05-14T17:26:04.146Z,10.73
2023-05-14T17:28:31.042Z,9.93
2023-05-14T17:30:57.918Z,10.00
2023-05-14T17:33:24.928Z,10.15
2023-05-14T17:35:51.932Z,10.45
2023-05-14T17:38:18.828Z,10.68
2023-05-14T17:40:45.754Z,12.05
2023-05-14T17:43:12.896Z,11.10
2023-05-14T17:45:53.316Z,11.00
2023-05-14T17:48:22.339Z,11.25
2023-05-14T17:50:49.227Z,12.63
2023-05-14T17:53:16.082Z,10.40
2023-05-14T17:55:45.913Z,12.40
2023-05-14T17:58:16.325Z,10.73
2023-05-14T18:00:43.722Z,13.10
2023-05-14T18:03:11.438Z,13.20
2023-05-14T18:05:38.697Z,12.07
2023-05-14T18:08:05.822Z,13.10
2023-05-14T18:10:32.715Z,13.40
2023-05-14T18:12:59.637Z,15.13
2023-05-14T18:15:27.458Z,14.93
2023-05-14T18:17:54.601Z,14.05
2023-05-14T18:20:21.712Z,14.40
2023-05-14T18:22:49.377Z,14.68
2023-05-14T18:25:16.390Z,14.27
2023-05-14T18:27:44.341Z,13.75
2023-05-14T18:30:13.984Z,13.07
2023-05-14T18:32:41.553Z,12.70
2023-05-14T18:35:08.834Z,14.33
2023-05-14T18:37:35.810Z,13.03
2023-05-14T18:40:04.274Z,13.48
2023-05-14T18:42:32.182Z,14.02
2023-05-14T18:44:59.039Z,14.03
2023-05-14T18:47:25.944Z,11.87
2023-05-14T18:49:57.743Z,14.57
2023-05-14T18:52:24.805Z,13.05
2023-05-14T18:54:51.687Z,13.18
2023-05-14T18:57:18.579Z,13.07
2023-05-14T18:59:45.423Z,12.97
2023-05-14T19:02:12.262Z,14.07
2023-05-14T19:04:51.143Z,13.07
2023-05-14T19:07:19.249Z,12.93
2023-05-14T19:09:46.245Z,11.33
2023-05-14T19:12:13.470Z,11.27
2023-05-14T19:14:40.338Z,11.32
2023-05-14T19:17:07.281Z,10.82
2023-05-14T19:19:34.165Z,13.10
2023-05-14T19:22:01.047Z,13.60
2023-05-14T19:24:27.939Z,14.90
2023-05-14T19:26:54.821Z,13.30
2023-05-14T19:29:21.707Z,12.50
2023-05-14T19:31:50.052Z,11.80
2023-05-14T19:34:17.131Z,12.93
2023-05-14T19:36:44.049Z,13.67
2023-05-14T19:39:11.059Z,15.37
2023-05-14T19:41:38.015Z,14.97
2023-05-14T19:44:04.921Z,13.37
2023-05-14T19:46:31.926Z,16.20
2023-05-14T19:48:59.013Z,14.83
2023-05-14T19:51:25.894Z,14.63
2023-05-14T19:53:52.746Z,12.98
2023-05-14T19:56:19.692Z,13.20
2023-05-14T19:58:46.522Z,14.43
2023-05-14T20:01:14.506Z,15.33
2023-05-14T20:03:41.610Z,14.30
2023-05-14T20:06:08.518Z,16.37
2023-05-14T20:08:35.553Z,16.07
2023-05-14T20:11:03.483Z,15.03
2023-05-14T20:13:33.204Z,17.17
2023-05-14T20:16:00.218Z,16.63
2023-05-14T20:18:27.117Z,16.30
2023-05-14T20:20:54.694Z,13.97
2023-05-14T20:23:21.607Z,15.37
2023-05-14T20:25:48.455Z,16.30
2023-05-14T20:28:15.316Z,16.40
2023-05-14T20:30:42.563Z,16.57
2023-05-14T20:33:09.701Z,15.97
2023-05-14T20:35:36.590Z,15.70
2023-05-14T20:38:03.827Z,16.83
2023-05-14T20:40:32.777Z,15.67
2023-05-14T20:42:59.919Z,16.90
2023-05-14T20:45:27.192Z,17.40
2023-05-14T20:47:54.169Z,17.13
2023-05-14T20:50:22.592Z,17.20
2023-05-14T20:52:49.553Z,16.20
2023-05-14T20:55:16.572Z,16.73
2023-05-14T20:57:44.494Z,18.10
2023-05-14T21:00:12.004Z,16.90
2023-05-14T21:02:40.077Z,16.33
2023-05-14T21:05:08.238Z,16.53
2023-05-14T21:07:36.535Z,15.77
2023-05-14T21:10:04.208Z,16.47
2023-05-14T21:12:31.105Z,16.03
2023-05-14T21:14:57.943Z,16.80
2023-05-14T21:17:24.881Z,17.70
2023-05-14T21:19:52.763Z,17.30
2023-05-14T21:22:19.619Z,14.60
2023-05-14T21:24:46.637Z,14.57
2023-05-14T21:27:13.501Z,16.97
2023-05-14T21:29:42.427Z,15.60
2023-05-14T21:32:09.288Z,14.70
2023-05-14T21:34:36.122Z,16.27
2023-05-14T21:37:03.129Z,17.43
2023-05-14T21:39:33.198Z,16.77
2023-05-14T21:42:00.059Z,19.00
2023-05-14T21:44:26.990Z,20.43
2023-05-14T21:46:53.832Z,19.50
2023-05-14T21:49:20.677Z,20.60
2023-05-14T21:51:52.873Z,19.53
2023-05-14T21:54:19.939Z,19.40
2023-05-14T21:56:46.969Z,18.93
2023-05-14T21:59:13.950Z,19.67
2023-05-14T22:02:04.849Z,19.23
2023-05-14T22:04:27.785Z,18.97
2023-05-14T22:06:55.897Z,18.00
2023-05-14T22:09:22.745Z,20.47
2023-05-14T22:11:49.607Z,20.70
2023-05-14T22:14:16.482Z,21.90
2023-05-14T22:16:43.528Z,20.63
2023-05-14T22:19:10.527Z,20.33
2023-05-14T22:21:37.379Z,20.87
2023-05-14T22:24:04.369Z,23.53
2023-05-14T22:26:31.230Z,22.43
2023-05-14T22:28:58.164Z,22.83
2023-05-14T22:31:25.150Z,21.77
2023-05-14T22:33:53.668Z,21.00
2023-05-14T22:36:20.565Z,22.63
2023-05-14T22:38:47.445Z,22.73
2023-05-14T22:41:17.575Z,21.10
2023-05-14T22:43:44.493Z,20.70
2023-05-14T22:46:11.357Z,21.37
2023-05-14T22:48:38.300Z,22.80
2023-05-14T22:51:05.335Z,25.98
2023-05-14T22:53:32.176Z,28.20
2023-05-14T22:55:59.090Z,25.80
2023-05-14T22:58:25.937Z,25.17
2023-05-14T23:00:52.787Z,23.60
2023-05-14T23:03:19.701Z,21.37
2023-05-14T23:05:46.544Z,23.57
2023-05-14T23:08:13.454Z,22.23
2023-05-14T23:10:40.351Z,24.03
2023-05-14T23:13:07.245Z,23.00
2023-05-14T23:15:34.228Z,23.77
2023-05-14T23:18:01.170Z,21.30
2023-05-14T23:20:28.146Z,23.87
2023-05-14T23:22:55.001Z,23.90
2023-05-14T23:25:23.124Z,25.33
2023-05-14T23:27:50.264Z,25.57
2023-05-14T23:30:18.234Z,23.23
2023-05-14T23:32:45.093Z,23.23
2023-05-14T23:35:14.063Z,22.93
2023-05-14T23:37:47.036Z,24.33
2023-05-14T23:40:14.348Z,23.03
2023-05-14T23:42:41.294Z,26.47
2023-05-14T23:45:08.667Z,25.50
2023-05-14T23:47:35.643Z,25.20
2023-05-14T23:50:03.019Z,28.60
2023-05-14T23:52:29.855Z,26.60
2023-05-14T23:54:58.044Z,27.47
2023-05-14T23:57:27.249Z,27.63
2023-05-14T23:59:54.081Z,30.80
